Terminal Aerodrome Forecast
Issued by NWS Mt. Holly, NJ

Home | Current Version | Previous Version | Text Only | Print | Product List | Glossary On
Versions: 1 2 3 4 5 6 7 8 9 10 11 12 13 14 15 16 17 18 19 20 21 22
000
FTAK31 PANC 251151
TAFABE
TAF
PABE 251151Z 2512/2612 17015KT P6SM VCSH BKN005 BKN015
      WS020/21035KT
     FM251500 18020G30KT 5SM -SHSN SCT005 OVC012 WS020/21045KT
     FM260000 19023KT 1/2SM SN SCT002 OVC008 WS020/22055KT
     FM260900 20015KT P6SM -SHSN SCT008 BKN010=

USA.gov is the U.S. government's official web portal to all federal, state and local government web resources and services.